sensor_id;sensor_type;location;lat;lon;timestamp;P1;durP1;ratioP1;P2;durP2;ratioP2
67585;SDS011;55785;47.946;20.540;2023-11-19T00:01:46;0.90;;;0.83;;
67585;SDS011;55785;47.946;20.540;2023-11-19T00:04:11;2.53;;;1.97;;
67585;SDS011;55785;47.946;20.540;2023-11-19T00:06:37;2.73;;;1.87;;
67585;SDS011;55785;47.946;20.540;2023-11-19T00:09:02;3.33;;;2.23;;
67585;SDS011;55785;47.946;20.540;2023-11-19T00:11:28;2.53;;;1.93;;
67585;SDS011;55785;47.946;20.540;2023-11-19T00:13:53;2.07;;;1.60;;
67585;SDS011;55785;47.946;20.540;2023-11-19T00:16:18;1.20;;;1.10;;
67585;SDS011;55785;47.946;20.540;2023-11-19T00:18:44;1.30;;;1.10;;
67585;SDS011;55785;47.946;20.540;2023-11-19T00:21:09;1.90;;;1.40;;
67585;SDS011;55785;47.946;20.540;2023-11-19T00:23:35;2.90;;;1.47;;
67585;SDS011;55785;47.946;20.540;2023-11-19T00:26:00;1.47;;;1.30;;
67585;SDS011;55785;47.946;20.540;2023-11-19T00:28:25;1.40;;;1.30;;
67585;SDS011;55785;47.946;20.540;2023-11-19T00:30:51;1.70;;;1.17;;
67585;SDS011;55785;47.946;20.540;2023-11-19T00:33:16;1.20;;;1.10;;
67585;SDS011;55785;47.946;20.540;2023-11-19T00:35:41;1.73;;;1.37;;
67585;SDS011;55785;47.946;20.540;2023-11-19T00:38:07;1.63;;;1.40;;
67585;SDS011;55785;47.946;20.540;2023-11-19T00:40:32;1.07;;;0.97;;
67585;SDS011;55785;47.946;20.540;2023-11-19T00:42:57;3.23;;;1.43;;
67585;SDS011;55785;47.946;20.540;2023-11-19T00:45:23;3.27;;;2.50;;
67585;SDS011;55785;47.946;20.540;2023-11-19T00:47:48;2.40;;;1.50;;
67585;SDS011;55785;47.946;20.540;2023-11-19T00:50:14;0.70;;;0.67;;
67585;SDS011;55785;47.946;20.540;2023-11-19T00:52:39;0.93;;;0.90;;
67585;SDS011;55785;47.946;20.540;2023-11-19T00:55:04;3.43;;;2.13;;
67585;SDS011;55785;47.946;20.540;2023-11-19T00:57:31;1.70;;;1.13;;
67585;SDS011;55785;47.946;20.540;2023-11-19T00:59:56;1.73;;;1.33;;
67585;SDS011;55785;47.946;20.540;2023-11-19T01:02:21;1.60;;;1.30;;
67585;SDS011;55785;47.946;20.540;2023-11-19T01:04:47;1.50;;;1.17;;
67585;SDS011;55785;47.946;20.540;2023-11-19T01:07:12;1.53;;;1.43;;
67585;SDS011;55785;47.946;20.540;2023-11-19T01:09:38;1.43;;;1.33;;
67585;SDS011;55785;47.946;20.540;2023-11-19T01:12:04;1.47;;;1.37;;
67585;SDS011;55785;47.946;20.540;2023-11-19T01:14:29;1.27;;;1.10;;
67585;SDS011;55785;47.946;20.540;2023-11-19T01:16:55;1.50;;;1.40;;
67585;SDS011;55785;47.946;20.540;2023-11-19T01:19:21;2.00;;;1.47;;
67585;SDS011;55785;47.946;20.540;2023-11-19T01:21:47;1.17;;;1.00;;
67585;SDS011;55785;47.946;20.540;2023-11-19T01:24:13;3.13;;;1.20;;
67585;SDS011;55785;47.946;20.540;2023-11-19T01:26:38;2.23;;;1.60;;
67585;SDS011;55785;47.946;20.540;2023-11-19T01:29:03;1.23;;;1.13;;
67585;SDS011;55785;47.946;20.540;2023-11-19T01:31:29;1.23;;;1.00;;
67585;SDS011;55785;47.946;20.540;2023-11-19T01:33:54;1.57;;;1.23;;
67585;SDS011;55785;47.946;20.540;2023-11-19T01:36:19;1.90;;;1.60;;
67585;SDS011;55785;47.946;20.540;2023-11-19T01:38:45;1.33;;;0.97;;
67585;SDS011;55785;47.946;20.540;2023-11-19T01:41:10;1.40;;;1.30;;
67585;SDS011;55785;47.946;20.540;2023-11-19T01:43:36;1.83;;;0.90;;
67585;SDS011;55785;47.946;20.540;2023-11-19T01:46:04;2.87;;;1.40;;
67585;SDS011;55785;47.946;20.540;2023-11-19T01:48:34;1.60;;;1.43;;
67585;SDS011;55785;47.946;20.540;2023-11-19T01:50:59;2.43;;;1.23;;
67585;SDS011;55785;47.946;20.540;2023-11-19T01:53:25;1.53;;;1.00;;
67585;SDS011;55785;47.946;20.540;2023-11-19T01:55:52;3.67;;;1.60;;
67585;SDS011;55785;47.946;20.540;2023-11-19T01:58:17;2.03;;;1.47;;
67585;SDS011;55785;47.946;20.540;2023-11-19T02:00:44;3.97;;;2.90;;
67585;SDS011;55785;47.946;20.540;2023-11-19T02:03:09;4.53;;;2.33;;
67585;SDS011;55785;47.946;20.540;2023-11-19T02:05:36;4.03;;;2.23;;
67585;SDS011;55785;47.946;20.540;2023-11-19T02:08:03;3.70;;;2.20;;
67585;SDS011;55785;47.946;20.540;2023-11-19T02:10:29;3.23;;;2.27;;
67585;SDS011;55785;47.946;20.540;2023-11-19T02:12:54;1.23;;;1.13;;
67585;SDS011;55785;47.946;20.540;2023-11-19T02:15:19;1.23;;;1.13;;
67585;SDS011;55785;47.946;20.540;2023-11-19T02:17:45;1.57;;;1.30;;
67585;SDS011;55785;47.946;20.540;2023-11-19T02:20:10;2.47;;;1.87;;
67585;SDS011;55785;47.946;20.540;2023-11-19T02:22:36;2.00;;;1.40;;
67585;SDS011;55785;47.946;20.540;2023-11-19T02:25:04;3.30;;;1.40;;
67585;SDS011;55785;47.946;20.540;2023-11-19T02:30:03;1.63;;;1.17;;
67585;SDS011;55785;47.946;20.540;2023-11-19T02:32:28;1.43;;;1.30;;
67585;SDS011;55785;47.946;20.540;2023-11-19T02:34:54;1.77;;;1.67;;
67585;SDS011;55785;47.946;20.540;2023-11-19T02:37:19;1.47;;;1.20;;
67585;SDS011;55785;47.946;20.540;2023-11-19T02:39:44;1.70;;;1.03;;
67585;SDS011;55785;47.946;20.540;2023-11-19T02:42:10;2.00;;;1.80;;
67585;SDS011;55785;47.946;20.540;2023-11-19T02:44:35;3.10;;;2.40;;
67585;SDS011;55785;47.946;20.540;2023-11-19T02:47:00;4.00;;;2.50;;
67585;SDS011;55785;47.946;20.540;2023-11-19T02:49:26;5.53;;;2.07;;
67585;SDS011;55785;47.946;20.540;2023-11-19T02:51:51;2.70;;;1.57;;
67585;SDS011;55785;47.946;20.540;2023-11-19T02:54:17;1.53;;;1.43;;
67585;SDS011;55785;47.946;20.540;2023-11-19T02:56:42;1.73;;;1.13;;
67585;SDS011;55785;47.946;20.540;2023-11-19T02:59:08;1.83;;;1.20;;
67585;SDS011;55785;47.946;20.540;2023-11-19T03:01:33;1.40;;;1.30;;
67585;SDS011;55785;47.946;20.540;2023-11-19T03:03:59;1.87;;;1.67;;
67585;SDS011;55785;47.946;20.540;2023-11-19T03:06:25;3.57;;;1.87;;
67585;SDS011;55785;47.946;20.540;2023-11-19T03:08:50;1.40;;;1.30;;
67585;SDS011;55785;47.946;20.540;2023-11-19T03:11:16;1.80;;;0.90;;
67585;SDS011;55785;47.946;20.540;2023-11-19T03:13:41;0.90;;;0.83;;
67585;SDS011;55785;47.946;20.540;2023-11-19T03:16:07;1.97;;;1.73;;
67585;SDS011;55785;47.946;20.540;2023-11-19T03:18:32;1.93;;;1.47;;
67585;SDS011;55785;47.946;20.540;2023-11-19T03:20:58;1.73;;;1.27;;
67585;SDS011;55785;47.946;20.540;2023-11-19T03:23:23;1.50;;;1.30;;
67585;SDS011;55785;47.946;20.540;2023-11-19T03:25:49;1.20;;;1.10;;
67585;SDS011;55785;47.946;20.540;2023-11-19T03:28:14;1.43;;;1.27;;
67585;SDS011;55785;47.946;20.540;2023-11-19T03:30:39;2.03;;;1.10;;
67585;SDS011;55785;47.946;20.540;2023-11-19T03:33:05;1.57;;;1.33;;
67585;SDS011;55785;47.946;20.540;2023-11-19T03:35:30;1.33;;;1.03;;
67585;SDS011;55785;47.946;20.540;2023-11-19T03:37:55;2.43;;;1.70;;
67585;SDS011;55785;47.946;20.540;2023-11-19T03:40:21;2.27;;;1.30;;
67585;SDS011;55785;47.946;20.540;2023-11-19T03:42:46;2.07;;;1.00;;
67585;SDS011;55785;47.946;20.540;2023-11-19T03:45:12;1.17;;;1.03;;
67585;SDS011;55785;47.946;20.540;2023-11-19T03:47:38;1.20;;;1.10;;
67585;SDS011;55785;47.946;20.540;2023-11-19T03:50:03;3.03;;;1.57;;
67585;SDS011;55785;47.946;20.540;2023-11-19T03:52:29;2.93;;;1.67;;
67585;SDS011;55785;47.946;20.540;2023-11-19T03:54:55;1.83;;;1.30;;
67585;SDS011;55785;47.946;20.540;2023-11-19T03:57:21;1.93;;;1.33;;
67585;SDS011;55785;47.946;20.540;2023-11-19T03:59:47;3.53;;;1.90;;
67585;SDS011;55785;47.946;20.540;2023-11-19T04:02:12;1.83;;;1.30;;
67585;SDS011;55785;47.946;20.540;2023-11-19T04:04:38;2.43;;;1.13;;
67585;SDS011;55785;47.946;20.540;2023-11-19T04:07:04;4.57;;;1.53;;
67585;SDS011;55785;47.946;20.540;2023-11-19T04:09:30;1.60;;;1.43;;
67585;SDS011;55785;47.946;20.540;2023-11-19T04:11:56;1.40;;;1.17;;
67585;SDS011;55785;47.946;20.540;2023-11-19T04:14:21;3.40;;;1.17;;
67585;SDS011;55785;47.946;20.540;2023-11-19T04:16:47;1.10;;;1.00;;
67585;SDS011;55785;47.946;20.540;2023-11-19T04:19:12;1.43;;;1.03;;
67585;SDS011;55785;47.946;20.540;2023-11-19T04:21:41;1.20;;;0.90;;
67585;SDS011;55785;47.946;20.540;2023-11-19T04:24:06;3.10;;;1.30;;
67585;SDS011;55785;47.946;20.540;2023-11-19T04:26:32;1.90;;;1.43;;
67585;SDS011;55785;47.946;20.540;2023-11-19T04:28:58;1.13;;;1.03;;
67585;SDS011;55785;47.946;20.540;2023-11-19T04:31:23;3.07;;;1.23;;
67585;SDS011;55785;47.946;20.540;2023-11-19T04:33:48;2.53;;;1.20;;
67585;SDS011;55785;47.946;20.540;2023-11-19T04:36:18;2.13;;;1.63;;
67585;SDS011;55785;47.946;20.540;2023-11-19T04:38:43;1.80;;;1.40;;
67585;SDS011;55785;47.946;20.540;2023-11-19T04:41:09;1.60;;;1.43;;
67585;SDS011;55785;47.946;20.540;2023-11-19T04:43:34;0.90;;;0.87;;
67585;SDS011;55785;47.946;20.540;2023-11-19T04:45:59;2.70;;;1.93;;
67585;SDS011;55785;47.946;20.540;2023-11-19T04:48:25;3.30;;;2.07;;
67585;SDS011;55785;47.946;20.540;2023-11-19T04:50:50;2.07;;;1.27;;
67585;SDS011;55785;47.946;20.540;2023-11-19T04:53:16;1.57;;;1.47;;
67585;SDS011;55785;47.946;20.540;2023-11-19T04:55:41;4.43;;;1.73;;
67585;SDS011;55785;47.946;20.540;2023-11-19T04:58:07;0.73;;;0.67;;
67585;SDS011;55785;47.946;20.540;2023-11-19T05:00:32;1.97;;;1.40;;
67585;SDS011;55785;47.946;20.540;2023-11-19T05:02:57;1.67;;;1.50;;
67585;SDS011;55785;47.946;20.540;2023-11-19T05:05:23;1.40;;;1.03;;
67585;SDS011;55785;47.946;20.540;2023-11-19T05:07:48;1.47;;;1.00;;
67585;SDS011;55785;47.946;20.540;2023-11-19T05:10:13;1.93;;;0.90;;
67585;SDS011;55785;47.946;20.540;2023-11-19T05:12:39;1.07;;;0.97;;
67585;SDS011;55785;47.946;20.540;2023-11-19T05:15:04;1.97;;;1.57;;
67585;SDS011;55785;47.946;20.540;2023-11-19T05:17:30;1.20;;;1.10;;
67585;SDS011;55785;47.946;20.540;2023-11-19T05:19:55;2.57;;;1.50;;
67585;SDS011;55785;47.946;20.540;2023-11-19T05:22:21;3.57;;;2.00;;
67585;SDS011;55785;47.946;20.540;2023-11-19T05:24:46;1.30;;;1.07;;
67585;SDS011;55785;47.946;20.540;2023-11-19T05:27:12;1.30;;;1.20;;
67585;SDS011;55785;47.946;20.540;2023-11-19T05:29:37;2.97;;;1.87;;
67585;SDS011;55785;47.946;20.540;2023-11-19T05:32:02;1.93;;;1.50;;
67585;SDS011;55785;47.946;20.540;2023-11-19T05:34:28;1.27;;;1.17;;
67585;SDS011;55785;47.946;20.540;2023-11-19T05:36:53;1.43;;;1.33;;
67585;SDS011;55785;47.946;20.540;2023-11-19T05:39:19;2.27;;;1.50;;
67585;SDS011;55785;47.946;20.540;2023-11-19T05:41:44;2.13;;;1.33;;
67585;SDS011;55785;47.946;20.540;2023-11-19T05:44:09;2.07;;;1.60;;
67585;SDS011;55785;47.946;20.540;2023-11-19T05:46:35;2.57;;;1.60;;
67585;SDS011;55785;47.946;20.540;2023-11-19T05:49:00;3.17;;;1.83;;
67585;SDS011;55785;47.946;20.540;2023-11-19T05:51:25;1.53;;;1.23;;
67585;SDS011;55785;47.946;20.540;2023-11-19T05:53:51;2.30;;;1.63;;
67585;SDS011;55785;47.946;20.540;2023-11-19T05:56:16;3.07;;;1.23;;
67585;SDS011;55785;47.946;20.540;2023-11-19T05:58:42;1.77;;;1.50;;
67585;SDS011;55785;47.946;20.540;2023-11-19T06:01:07;3.43;;;1.40;;
67585;SDS011;55785;47.946;20.540;2023-11-19T06:03:32;3.53;;;1.93;;
67585;SDS011;55785;47.946;20.540;2023-11-19T06:05:58;1.90;;;1.70;;
67585;SDS011;55785;47.946;20.540;2023-11-19T06:08:23;2.87;;;1.57;;
67585;SDS011;55785;47.946;20.540;2023-11-19T06:10:48;1.27;;;1.17;;
67585;SDS011;55785;47.946;20.540;2023-11-19T06:13:14;2.03;;;1.83;;
67585;SDS011;55785;47.946;20.540;2023-11-19T06:15:40;1.23;;;1.13;;
67585;SDS011;55785;47.946;20.540;2023-11-19T06:18:06;2.00;;;1.40;;
67585;SDS011;55785;47.946;20.540;2023-11-19T06:20:32;2.40;;;1.50;;
67585;SDS011;55785;47.946;20.540;2023-11-19T06:22:58;1.70;;;1.50;;
67585;SDS011;55785;47.946;20.540;2023-11-19T06:25:24;3.67;;;2.07;;
67585;SDS011;55785;47.946;20.540;2023-11-19T06:27:50;2.83;;;1.90;;
67585;SDS011;55785;47.946;20.540;2023-11-19T06:30:15;1.80;;;1.57;;
67585;SDS011;55785;47.946;20.540;2023-11-19T06:32:41;1.47;;;1.37;;
67585;SDS011;55785;47.946;20.540;2023-11-19T06:35:06;0.97;;;0.93;;
67585;SDS011;55785;47.946;20.540;2023-11-19T06:37:32;1.57;;;1.47;;
67585;SDS011;55785;47.946;20.540;2023-11-19T06:39:57;2.00;;;1.50;;
67585;SDS011;55785;47.946;20.540;2023-11-19T06:42:22;1.70;;;1.13;;
67585;SDS011;55785;47.946;20.540;2023-11-19T06:44:48;1.70;;;1.00;;
67585;SDS011;55785;47.946;20.540;2023-11-19T06:47:13;2.67;;;1.90;;
67585;SDS011;55785;47.946;20.540;2023-11-19T06:49:39;2.10;;;1.60;;
67585;SDS011;55785;47.946;20.540;2023-11-19T06:52:04;2.60;;;1.40;;
67585;SDS011;55785;47.946;20.540;2023-11-19T06:54:30;2.20;;;1.47;;
67585;SDS011;55785;47.946;20.540;2023-11-19T06:56:55;1.97;;;1.20;;
67585;SDS011;55785;47.946;20.540;2023-11-19T06:59:20;1.67;;;1.57;;
67585;SDS011;55785;47.946;20.540;2023-11-19T07:01:46;2.23;;;1.30;;
67585;SDS011;55785;47.946;20.540;2023-11-19T07:04:11;4.13;;;2.60;;
67585;SDS011;55785;47.946;20.540;2023-11-19T07:06:37;1.57;;;1.47;;
67585;SDS011;55785;47.946;20.540;2023-11-19T07:09:02;2.80;;;1.57;;
67585;SDS011;55785;47.946;20.540;2023-11-19T07:11:28;2.43;;;1.63;;
67585;SDS011;55785;47.946;20.540;2023-11-19T07:13:53;4.63;;;2.33;;
67585;SDS011;55785;47.946;20.540;2023-11-19T07:16:18;3.83;;;2.10;;
67585;SDS011;55785;47.946;20.540;2023-11-19T07:18:44;2.73;;;1.93;;
67585;SDS011;55785;47.946;20.540;2023-11-19T07:21:09;3.13;;;2.83;;
67585;SDS011;55785;47.946;20.540;2023-11-19T07:23:35;5.87;;;4.30;;
67585;SDS011;55785;47.946;20.540;2023-11-19T07:26:00;7.37;;;4.23;;
67585;SDS011;55785;47.946;20.540;2023-11-19T07:28:25;6.80;;;4.77;;
67585;SDS011;55785;47.946;20.540;2023-11-19T07:30:51;11.20;;;6.60;;
67585;SDS011;55785;47.946;20.540;2023-11-19T07:33:16;15.17;;;9.07;;
67585;SDS011;55785;47.946;20.540;2023-11-19T07:35:42;17.07;;;9.00;;
67585;SDS011;55785;47.946;20.540;2023-11-19T07:38:07;12.43;;;7.53;;
67585;SDS011;55785;47.946;20.540;2023-11-19T07:40:32;11.63;;;6.20;;
67585;SDS011;55785;47.946;20.540;2023-11-19T07:42:58;7.37;;;4.47;;
67585;SDS011;55785;47.946;20.540;2023-11-19T07:45:23;10.03;;;5.30;;
67585;SDS011;55785;47.946;20.540;2023-11-19T07:47:48;14.93;;;5.83;;
67585;SDS011;55785;47.946;20.540;2023-11-19T07:50:14;9.50;;;4.53;;
67585;SDS011;55785;47.946;20.540;2023-11-19T07:52:39;4.90;;;3.13;;
67585;SDS011;55785;47.946;20.540;2023-11-19T07:55:05;5.10;;;2.63;;
67585;SDS011;55785;47.946;20.540;2023-11-19T07:57:30;4.80;;;3.13;;
67585;SDS011;55785;47.946;20.540;2023-11-19T07:59:56;7.27;;;4.20;;
67585;SDS011;55785;47.946;20.540;2023-11-19T08:02:24;5.77;;;2.83;;
67585;SDS011;55785;47.946;20.540;2023-11-19T08:04:50;9.23;;;4.37;;
67585;SDS011;55785;47.946;20.540;2023-11-19T08:07:15;11.80;;;3.37;;
67585;SDS011;55785;47.946;20.540;2023-11-19T08:09:41;5.63;;;3.60;;
67585;SDS011;55785;47.946;20.540;2023-11-19T08:12:06;6.60;;;3.90;;
67585;SDS011;55785;47.946;20.540;2023-11-19T08:14:31;5.73;;;3.63;;
67585;SDS011;55785;47.946;20.540;2023-11-19T08:16:57;9.07;;;4.70;;
67585;SDS011;55785;47.946;20.540;2023-11-19T08:19:22;13.43;;;4.37;;
67585;SDS011;55785;47.946;20.540;2023-11-19T08:21:47;5.10;;;4.47;;
67585;SDS011;55785;47.946;20.540;2023-11-19T08:24:13;6.07;;;4.23;;
67585;SDS011;55785;47.946;20.540;2023-11-19T08:26:38;9.73;;;5.17;;
67585;SDS011;55785;47.946;20.540;2023-11-19T08:29:03;6.23;;;3.97;;
67585;SDS011;55785;47.946;20.540;2023-11-19T08:31:29;7.67;;;4.30;;
67585;SDS011;55785;47.946;20.540;2023-11-19T08:33:54;10.47;;;3.40;;
67585;SDS011;55785;47.946;20.540;2023-11-19T08:36:19;5.00;;;2.80;;
67585;SDS011;55785;47.946;20.540;2023-11-19T08:38:45;3.13;;;2.20;;
67585;SDS011;55785;47.946;20.540;2023-11-19T08:41:10;5.13;;;3.03;;
67585;SDS011;55785;47.946;20.540;2023-11-19T08:43:35;4.50;;;3.33;;
67585;SDS011;55785;47.946;20.540;2023-11-19T08:46:01;5.57;;;2.87;;
67585;SDS011;55785;47.946;20.540;2023-11-19T08:48:26;4.17;;;2.33;;
67585;SDS011;55785;47.946;20.540;2023-11-19T08:50:52;8.43;;;4.70;;
67585;SDS011;55785;47.946;20.540;2023-11-19T08:53:17;7.77;;;3.77;;
67585;SDS011;55785;47.946;20.540;2023-11-19T08:55:42;6.13;;;3.57;;
67585;SDS011;55785;47.946;20.540;2023-11-19T08:58:08;5.03;;;3.37;;
67585;SDS011;55785;47.946;20.540;2023-11-19T09:00:33;3.17;;;2.47;;
67585;SDS011;55785;47.946;20.540;2023-11-19T09:02:58;5.43;;;3.13;;
67585;SDS011;55785;47.946;20.540;2023-11-19T09:05:24;13.67;;;4.63;;
67585;SDS011;55785;47.946;20.540;2023-11-19T09:07:49;5.60;;;2.97;;
67585;SDS011;55785;47.946;20.540;2023-11-19T09:10:14;5.47;;;3.30;;
67585;SDS011;55785;47.946;20.540;2023-11-19T09:12:40;4.00;;;2.60;;
67585;SDS011;55785;47.946;20.540;2023-11-19T09:15:05;6.90;;;4.00;;
67585;SDS011;55785;47.946;20.540;2023-11-19T09:17:31;4.97;;;3.23;;
67585;SDS011;55785;47.946;20.540;2023-11-19T09:19:56;7.47;;;3.60;;
67585;SDS011;55785;47.946;20.540;2023-11-19T09:22:21;6.30;;;3.43;;
67585;SDS011;55785;47.946;20.540;2023-11-19T09:24:47;5.17;;;3.67;;
67585;SDS011;55785;47.946;20.540;2023-11-19T09:27:12;3.87;;;2.80;;
67585;SDS011;55785;47.946;20.540;2023-11-19T09:29:37;5.20;;;4.27;;
67585;SDS011;55785;47.946;20.540;2023-11-19T09:32:03;4.70;;;3.13;;
67585;SDS011;55785;47.946;20.540;2023-11-19T09:34:28;4.87;;;3.33;;
67585;SDS011;55785;47.946;20.540;2023-11-19T09:36:54;5.87;;;4.03;;
67585;SDS011;55785;47.946;20.540;2023-11-19T09:39:19;5.37;;;3.07;;
67585;SDS011;55785;47.946;20.540;2023-11-19T09:41:45;4.40;;;3.37;;
67585;SDS011;55785;47.946;20.540;2023-11-19T09:44:10;5.17;;;3.50;;
67585;SDS011;55785;47.946;20.540;2023-11-19T09:46:36;4.27;;;3.07;;
67585;SDS011;55785;47.946;20.540;2023-11-19T09:49:01;5.40;;;3.83;;
67585;SDS011;55785;47.946;20.540;2023-11-19T09:51:28;4.90;;;3.00;;
67585;SDS011;55785;47.946;20.540;2023-11-19T09:53:53;4.63;;;3.30;;
67585;SDS011;55785;47.946;20.540;2023-11-19T09:56:19;5.00;;;2.63;;
67585;SDS011;55785;47.946;20.540;2023-11-19T09:58:44;4.73;;;3.47;;
67585;SDS011;55785;47.946;20.540;2023-11-19T10:01:10;6.23;;;3.30;;
67585;SDS011;55785;47.946;20.540;2023-11-19T10:03:35;5.60;;;3.60;;
67585;SDS011;55785;47.946;20.540;2023-11-19T10:06:01;5.30;;;3.37;;
67585;SDS011;55785;47.946;20.540;2023-11-19T10:08:27;5.90;;;3.57;;
67585;SDS011;55785;47.946;20.540;2023-11-19T10:10:53;6.13;;;3.57;;
67585;SDS011;55785;47.946;20.540;2023-11-19T10:13:18;7.83;;;4.10;;
67585;SDS011;55785;47.946;20.540;2023-11-19T10:15:43;6.07;;;3.50;;
67585;SDS011;55785;47.946;20.540;2023-11-19T10:18:09;5.70;;;4.07;;
67585;SDS011;55785;47.946;20.540;2023-11-19T10:20:35;4.57;;;2.80;;
67585;SDS011;55785;47.946;20.540;2023-11-19T10:23:01;5.33;;;2.67;;
67585;SDS011;55785;47.946;20.540;2023-11-19T10:25:27;8.47;;;4.90;;
67585;SDS011;55785;47.946;20.540;2023-11-19T10:27:53;11.90;;;5.07;;
67585;SDS011;55785;47.946;20.540;2023-11-19T10:30:24;9.87;;;4.57;;
67585;SDS011;55785;47.946;20.540;2023-11-19T10:33:09;11.50;;;4.33;;
67585;SDS011;55785;47.946;20.540;2023-11-19T10:38:17;8.97;;;3.97;;
67585;SDS011;55785;47.946;20.540;2023-11-19T10:40:42;8.80;;;5.30;;
67585;SDS011;55785;47.946;20.540;2023-11-19T10:43:08;5.67;;;4.43;;
67585;SDS011;55785;47.946;20.540;2023-11-19T10:45:37;11.07;;;3.87;;
67585;SDS011;55785;47.946;20.540;2023-11-19T10:48:03;5.70;;;3.00;;
67585;SDS011;55785;47.946;20.540;2023-11-19T10:50:29;8.77;;;4.70;;
67585;SDS011;55785;47.946;20.540;2023-11-19T10:52:56;16.70;;;5.70;;
67585;SDS011;55785;47.946;20.540;2023-11-19T10:55:22;9.73;;;4.63;;
67585;SDS011;55785;47.946;20.540;2023-11-19T10:57:51;7.57;;;4.30;;
67585;SDS011;55785;47.946;20.540;2023-11-19T11:00:17;5.47;;;3.83;;
67585;SDS011;55785;47.946;20.540;2023-11-19T11:02:47;4.57;;;2.90;;
67585;SDS011;55785;47.946;20.540;2023-11-19T11:05:19;5.03;;;3.10;;
67585;SDS011;55785;47.946;20.540;2023-11-19T11:07:45;6.47;;;3.70;;
67585;SDS011;55785;47.946;20.540;2023-11-19T11:10:11;4.43;;;3.10;;
67585;SDS011;55785;47.946;20.540;2023-11-19T11:12:38;6.13;;;3.53;;
67585;SDS011;55785;47.946;20.540;2023-11-19T11:15:06;6.30;;;3.47;;
67585;SDS011;55785;47.946;20.540;2023-11-19T11:17:33;5.77;;;3.97;;
67585;SDS011;55785;47.946;20.540;2023-11-19T11:19:59;5.93;;;3.20;;
67585;SDS011;55785;47.946;20.540;2023-11-19T11:22:27;3.47;;;2.33;;
67585;SDS011;55785;47.946;20.540;2023-11-19T11:24:59;5.80;;;3.60;;
67585;SDS011;55785;47.946;20.540;2023-11-19T11:33:26;8.30;;;3.73;;
67585;SDS011;55785;47.946;20.540;2023-11-19T11:36:08;4.30;;;2.07;;
67585;SDS011;55785;47.946;20.540;2023-11-19T11:38:41;3.73;;;2.33;;
67585;SDS011;55785;47.946;20.540;2023-11-19T11:41:19;7.87;;;4.07;;
67585;SDS011;55785;47.946;20.540;2023-11-19T11:43:49;5.40;;;2.97;;
67585;SDS011;55785;47.946;20.540;2023-11-19T11:49:05;4.97;;;2.77;;
67585;SDS011;55785;47.946;20.540;2023-11-19T11:54:09;6.10;;;2.67;;
67585;SDS011;55785;47.946;20.540;2023-11-19T11:56:43;3.43;;;2.77;;
67585;SDS011;55785;47.946;20.540;2023-11-19T11:59:52;4.67;;;2.63;;
67585;SDS011;55785;47.946;20.540;2023-11-19T12:02:17;4.95;;;3.78;;
67585;SDS011;55785;47.946;20.540;2023-11-19T12:04:49;4.17;;;2.93;;
67585;SDS011;55785;47.946;20.540;2023-11-19T12:07:16;6.93;;;3.53;;
67585;SDS011;55785;47.946;20.540;2023-11-19T12:09:47;6.10;;;2.93;;
67585;SDS011;55785;47.946;20.540;2023-11-19T12:12:20;4.37;;;3.07;;
67585;SDS011;55785;47.946;20.540;2023-11-19T12:15:19;6.33;;;3.27;;
67585;SDS011;55785;47.946;20.540;2023-11-19T12:17:41;5.33;;;3.20;;
67585;SDS011;55785;47.946;20.540;2023-11-19T12:20:08;4.67;;;3.03;;
67585;SDS011;55785;47.946;20.540;2023-11-19T12:22:40;6.03;;;2.83;;
67585;SDS011;55785;47.946;20.540;2023-11-19T12:25:07;6.43;;;2.97;;
67585;SDS011;55785;47.946;20.540;2023-11-19T12:27:34;5.07;;;3.43;;
67585;SDS011;55785;47.946;20.540;2023-11-19T12:30:00;6.30;;;3.27;;
67585;SDS011;55785;47.946;20.540;2023-11-19T12:32:36;7.70;;;3.87;;
67585;SDS011;55785;47.946;20.540;2023-11-19T12:35:02;6.20;;;4.10;;
67585;SDS011;55785;47.946;20.540;2023-11-19T12:37:28;9.10;;;2.70;;
67585;SDS011;55785;47.946;20.540;2023-11-19T12:39:53;5.33;;;3.93;;
67585;SDS011;55785;47.946;20.540;2023-11-19T12:42:19;9.23;;;4.13;;
67585;SDS011;55785;47.946;20.540;2023-11-19T12:44:54;6.33;;;4.07;;
67585;SDS011;55785;47.946;20.540;2023-11-19T12:49:55;7.87;;;4.03;;
67585;SDS011;55785;47.946;20.540;2023-11-19T12:52:23;6.13;;;4.00;;
67585;SDS011;55785;47.946;20.540;2023-11-19T12:54:48;8.20;;;4.20;;
67585;SDS011;55785;47.946;20.540;2023-11-19T12:57:14;6.90;;;4.50;;
67585;SDS011;55785;47.946;20.540;2023-11-19T12:59:39;5.47;;;3.53;;
67585;SDS011;55785;47.946;20.540;2023-11-19T13:02:05;4.57;;;2.83;;
67585;SDS011;55785;47.946;20.540;2023-11-19T13:04:30;4.77;;;3.20;;
67585;SDS011;55785;47.946;20.540;2023-11-19T13:06:57;6.93;;;2.73;;
67585;SDS011;55785;47.946;20.540;2023-11-19T13:09:23;3.73;;;3.03;;
67585;SDS011;55785;47.946;20.540;2023-11-19T13:11:52;5.37;;;3.80;;
67585;SDS011;55785;47.946;20.540;2023-11-19T13:14:18;7.13;;;4.60;;
67585;SDS011;55785;47.946;20.540;2023-11-19T13:16:45;6.80;;;4.03;;
67585;SDS011;55785;47.946;20.540;2023-11-19T13:19:10;9.97;;;5.13;;
67585;SDS011;55785;47.946;20.540;2023-11-19T13:21:35;6.97;;;4.20;;
67585;SDS011;55785;47.946;20.540;2023-11-19T13:24:01;10.03;;;5.53;;
67585;SDS011;55785;47.946;20.540;2023-11-19T13:26:27;7.50;;;5.10;;
67585;SDS011;55785;47.946;20.540;2023-11-19T13:28:52;7.90;;;4.63;;
67585;SDS011;55785;47.946;20.540;2023-11-19T13:31:17;9.87;;;4.27;;
67585;SDS011;55785;47.946;20.540;2023-11-19T13:33:44;5.90;;;3.83;;
67585;SDS011;55785;47.946;20.540;2023-11-19T13:36:12;4.83;;;3.33;;
67585;SDS011;55785;47.946;20.540;2023-11-19T13:38:37;6.97;;;3.70;;
67585;SDS011;55785;47.946;20.540;2023-11-19T13:41:03;8.43;;;4.10;;
67585;SDS011;55785;47.946;20.540;2023-11-19T13:43:28;8.17;;;4.20;;
67585;SDS011;55785;47.946;20.540;2023-11-19T13:45:54;7.33;;;4.43;;
67585;SDS011;55785;47.946;20.540;2023-11-19T13:48:20;13.37;;;6.53;;
67585;SDS011;55785;47.946;20.540;2023-11-19T13:50:46;8.13;;;5.17;;
67585;SDS011;55785;47.946;20.540;2023-11-19T13:53:11;8.13;;;4.90;;
67585;SDS011;55785;47.946;20.540;2023-11-19T13:55:36;8.17;;;4.80;;
67585;SDS011;55785;47.946;20.540;2023-11-19T13:58:02;7.87;;;6.03;;
67585;SDS011;55785;47.946;20.540;2023-11-19T14:00:27;10.33;;;6.27;;
67585;SDS011;55785;47.946;20.540;2023-11-19T14:02:52;9.10;;;5.57;;
67585;SDS011;55785;47.946;20.540;2023-11-19T14:05:18;11.03;;;6.53;;
67585;SDS011;55785;47.946;20.540;2023-11-19T14:07:43;14.17;;;6.87;;
67585;SDS011;55785;47.946;20.540;2023-11-19T14:10:09;10.23;;;5.93;;
67585;SDS011;55785;47.946;20.540;2023-11-19T14:12:35;11.63;;;7.20;;
67585;SDS011;55785;47.946;20.540;2023-11-19T14:15:02;4.83;;;3.80;;
67585;SDS011;55785;47.946;20.540;2023-11-19T14:17:27;9.10;;;4.67;;
67585;SDS011;55785;47.946;20.540;2023-11-19T14:19:53;9.83;;;6.13;;
67585;SDS011;55785;47.946;20.540;2023-11-19T14:22:18;8.97;;;4.73;;
67585;SDS011;55785;47.946;20.540;2023-11-19T14:24:44;9.70;;;6.17;;
67585;SDS011;55785;47.946;20.540;2023-11-19T14:27:09;9.67;;;6.00;;
67585;SDS011;55785;47.946;20.540;2023-11-19T14:29:35;14.17;;;7.37;;
67585;SDS011;55785;47.946;20.540;2023-11-19T14:32:01;13.40;;;6.87;;
67585;SDS011;55785;47.946;20.540;2023-11-19T14:34:26;6.97;;;5.33;;
67585;SDS011;55785;47.946;20.540;2023-11-19T14:36:52;8.63;;;5.70;;
67585;SDS011;55785;47.946;20.540;2023-11-19T14:39:17;11.50;;;5.93;;
67585;SDS011;55785;47.946;20.540;2023-11-19T14:41:43;9.50;;;5.60;;
67585;SDS011;55785;47.946;20.540;2023-11-19T14:44:08;9.80;;;5.73;;
67585;SDS011;55785;47.946;20.540;2023-11-19T14:46:33;14.80;;;8.70;;